Dundee, MI (48131)

1:17 AM EDT on May 25, 2017 (GMT -0400)
KMIDUNDE3 | | Change Station

Elev 663 ft 41.96 °N, 83.62 °W | Updated 9 minutes ago

Overcast
Overcast
58.6 °F
Feels Like 58.6 °F
N
4.0
Wind Variable Wind from ENE
Gusts 9.0 mph

Today
High -- | Low -- °F
--% Chance of Precip.
Yesterday
High -- | Low -- °F
Precip. -- in
Pressure 29.47 in
Visibility 6.0 miles
Clouds Overcast 900 ft
Dew Point 58 °F
Humidity 96%
Rainfall 0.00 in
Snow Depth Not available.
6:05 AM 8:58 PM
Waning Crescent, 1% visible
METAR KARB 250453Z AUTO 05006KT 6SM -RA BR OVC009 15/14 A2948 RMK AO2 RAB12 CIG 005V013 SLP980 P0003 T01500144 401940128
Pressure 29.47 in
Visibility 6.0 miles
Clouds Overcast 900 ft
Dew Point 58 °F
Humidity 96%
Rainfall 0.00 in
Snow Depth Not available.
6:05 AM 8:58 PM
Waning Crescent, 1% visible
METAR KARB 250453Z AUTO 05006KT 6SM -RA BR OVC009 15/14 A2948 RMK AO2 RAB12 CIG 005V013 SLP980 P0003 T01500144 401940128

Get Severe Weather Alerts

Thanks for signing up!

Be on the lookout for a verification email in your inbox.

You'll start receiving the daily forecast at 6 AM.

×

10-Day Weather Forecast

Almanac

Astronomy

May. 25, 2017 Rise Set
Actual Time
Civil Twilight
Nautical Twilight
Astronomical Twilight
Moon
Length of Visible Light
Length of Day
Tomorrow will be .
, % of the Moon is Illuminated

Today's Extremes

State Highs State Lows

Community

WunderPhotos

Category 6

Welcome to Category 6. This is the collective home for Weather Underground's featured writeups by Dr. Jeff Masters (right), Bob Henson (left), Chris Burt, and other regular contributors.

Nearby

Air Quality

  Air Quality AQ Index Pollutant
Not available.

Snow Depth

Station Depth Elevation

Earthquake Activity

City Distance Mag. Time & Date
Minimum magnitude displayed is 2.5.

Coastal Water Temperatures

Place Temperature

Stations

Nearby Weather Stations

Station Location Temp. Windchill Dew Point Humidity Wind Precip. Elev Updated Type
                   

Watches & Warnings

There are currently no watches in effect.